createdAt,value
2022-11-26T00:03:18.341Z,96177.91
2022-11-26T00:07:01.167Z,96171.59
2022-11-26T00:10:43.968Z,96172.41
2022-11-26T00:14:28.849Z,96167.47
2022-11-26T00:18:13.033Z,96171.03
2022-11-26T00:21:55.769Z,96171.66
2022-11-26T00:25:41.214Z,96172.16
2022-11-26T00:29:23.979Z,96170.28
2022-11-26T00:33:08.408Z,96175.53
2022-11-26T00:36:51.290Z,96176.63
2022-11-26T00:40:34.695Z,96186.72
2022-11-26T00:44:20.004Z,96185.53
2022-11-26T00:48:02.793Z,96197.91
2022-11-26T00:51:47.722Z,96205.75
2022-11-26T00:55:33.452Z,96205.91
2022-11-26T00:59:20.319Z,96202.25
2022-11-26T01:03:03.468Z,96213.50
2022-11-26T01:06:47.636Z,96218.59
2022-11-26T01:10:32.145Z,96218.22
2022-11-26T01:14:17.047Z,96225.53
2022-11-26T01:17:59.739Z,96233.06
2022-11-26T01:21:42.617Z,96231.25
2022-11-26T01:25:27.873Z,96228.28
2022-11-26T01:29:16.274Z,96238.72
2022-11-26T01:33:00.830Z,96237.59
2022-11-26T01:36:44.459Z,96239.91
2022-11-26T01:40:36.728Z,96238.41
2022-11-26T01:44:21.395Z,96245.78
2022-11-26T01:48:07.177Z,96243.84
2022-11-26T01:51:52.557Z,96260.63
2022-11-26T01:55:39.493Z,96255.09
2022-11-26T01:59:25.560Z,96259.00
2022-11-26T02:03:08.991Z,96265.56
2022-11-26T02:06:52.690Z,96257.88
2022-11-26T02:10:36.690Z,96259.50
2022-11-26T02:14:22.455Z,96261.16
2022-11-26T02:18:09.189Z,96265.41
2022-11-26T02:21:57.534Z,96260.84
2022-11-26T02:26:18.375Z,96254.97
2022-11-26T02:30:10.316Z,96266.06
2022-11-26T02:33:56.597Z,96276.50
2022-11-26T02:37:44.026Z,96267.03
2022-11-26T02:41:33.819Z,96268.22
2022-11-26T02:45:19.915Z,96274.25
2022-11-26T02:49:03.606Z,96270.16
2022-11-26T02:52:46.552Z,96265.75
2022-11-26T02:56:30.520Z,96277.03
2022-11-26T03:00:14.372Z,96277.84
2022-11-26T03:04:01.121Z,96279.13
2022-11-26T03:07:44.759Z,96279.25
2022-11-26T03:11:27.750Z,96295.06
2022-11-26T03:15:11.379Z,96297.09
2022-11-26T03:18:56.852Z,96298.34
2022-11-26T03:22:40.925Z,96297.09
2022-11-26T03:26:23.573Z,96300.66
2022-11-26T03:30:07.622Z,96294.91
2022-11-26T03:33:50.311Z,96292.16
2022-11-26T03:37:33.323Z,96289.56
2022-11-26T03:41:17.372Z,96292.97
2022-11-26T03:45:00.121Z,96297.38
2022-11-26T03:48:42.816Z,96300.66
2022-11-26T03:52:25.545Z,96301.56
2022-11-26T03:56:08.895Z,96310.50
2022-11-26T03:59:52.879Z,96315.34
2022-11-26T04:03:35.736Z,96319.16
2022-11-26T04:07:18.509Z,96324.38
2022-11-26T04:11:01.565Z,96333.16
2022-11-26T04:14:44.274Z,96339.63
2022-11-26T04:18:28.246Z,96352.38
2022-11-26T04:22:11.179Z,96343.31
2022-11-26T04:25:53.875Z,96340.69
2022-11-26T04:29:37.407Z,96352.09
2022-11-26T04:33:20.282Z,96357.03
2022-11-26T04:37:04.425Z,96359.34
2022-11-26T04:40:48.080Z,96369.31
2022-11-26T04:44:30.798Z,96365.75
2022-11-26T04:48:13.593Z,96371.78
2022-11-26T04:51:56.305Z,96377.31
2022-11-26T04:55:40.322Z,96384.31
2022-11-26T04:59:22.995Z,96391.31
2022-11-26T05:03:05.853Z,96398.47
2022-11-26T05:06:48.638Z,96395.19
2022-11-26T05:10:31.393Z,96398.31
2022-11-26T05:14:15.612Z,96397.13
2022-11-26T05:17:58.305Z,96393.47
2022-11-26T05:21:41.224Z,96406.97
2022-11-26T05:25:23.969Z,96414.66
2022-11-26T05:29:06.909Z,96419.19
2022-11-26T05:32:51.053Z,96412.19
2022-11-26T05:36:33.800Z,96431.44
2022-11-26T05:40:16.493Z,96429.78
2022-11-26T05:43:59.236Z,96440.31
2022-11-26T05:47:41.933Z,96436.78
2022-11-26T05:51:25.990Z,96433.41
2022-11-26T05:55:10.150Z,96439.28
2022-11-26T05:58:53.285Z,96450.56
2022-11-26T06:02:36.134Z,96449.06
2022-11-26T06:06:18.935Z,96445.25
2022-11-26T06:10:03.153Z,96452.41
2022-11-26T06:13:46.131Z,96452.09
2022-11-26T06:17:28.894Z,96455.00
2022-11-26T06:21:11.712Z,96460.22
2022-11-26T06:24:54.416Z,96463.50
2022-11-26T06:28:38.918Z,96466.50
2022-11-26T06:32:23.826Z,96461.00
2022-11-26T06:36:07.269Z,96459.94
2022-11-26T06:39:49.894Z,96463.13
2022-11-26T06:43:33.155Z,96470.00
2022-11-26T06:47:17.404Z,96480.03
2022-11-26T06:51:04.445Z,96481.44
2022-11-26T06:54:47.096Z,96487.75
2022-11-26T06:58:29.818Z,96487.47
2022-11-26T07:02:12.654Z,96493.38
2022-11-26T07:05:57.077Z,96498.31
2022-11-26T07:09:40.094Z,96505.50
2022-11-26T07:13:22.833Z,96516.91
2022-11-26T07:17:05.512Z,96516.63
2022-11-26T07:20:48.274Z,96519.78
2022-11-26T07:24:32.284Z,96526.50
2022-11-26T07:28:15.017Z,96527.47
2022-11-26T07:31:57.799Z,96532.56
2022-11-26T07:35:43.606Z,96526.22
2022-11-26T07:39:26.275Z,96541.59
2022-11-26T07:43:10.401Z,96540.78
2022-11-26T07:46:53.045Z,96541.59
2022-11-26T07:50:35.694Z,96540.63
2022-11-26T07:54:18.382Z,96542.94
2022-11-26T07:58:01.059Z,96553.38
2022-11-26T08:01:45.187Z,96549.81
2022-11-26T08:05:27.985Z,96565.19
2022-11-26T08:09:13.944Z,96556.41
2022-11-26T08:12:56.571Z,96569.84
2022-11-26T08:16:39.709Z,96564.03
2022-11-26T08:20:28.683Z,96561.81
2022-11-26T08:24:15.552Z,96566.66
2022-11-26T08:27:58.332Z,96570.91
2022-11-26T08:31:45.507Z,96572.69
2022-11-26T08:35:51.123Z,96579.69
2022-11-26T08:39:34.638Z,96580.78
2022-11-26T08:43:17.331Z,96575.56
2022-11-26T08:47:00.079Z,96573.66
2022-11-26T08:50:46.551Z,96574.19
2022-11-26T08:54:29.363Z,96570.69
2022-11-26T08:58:12.065Z,96571.59
2022-11-26T09:01:54.937Z,96582.25
2022-11-26T09:05:37.632Z,96585.50
2022-11-26T09:09:21.722Z,96594.00
2022-11-26T09:13:04.439Z,96597.31
2022-11-26T09:16:47.713Z,96609.09
2022-11-26T09:20:33.259Z,96612.41
2022-11-26T09:24:17.188Z,96621.00
2022-11-26T09:28:01.250Z,96626.75
2022-11-26T09:32:07.529Z,96623.53
2022-11-26T09:35:47.207Z,96638.09
2022-11-26T09:39:30.686Z,96638.03
2022-11-26T09:43:23.115Z,96643.03
2022-11-26T09:47:13.107Z,96634.53
2022-11-26T09:51:01.381Z,96630.28
2022-11-26T09:54:45.384Z,96631.63
2022-11-26T09:58:34.498Z,96631.53
2022-11-26T10:02:17.326Z,96628.34
2022-11-26T10:06:03.732Z,96629.56
2022-11-26T10:09:57.688Z,96620.91
2022-11-26T10:13:47.890Z,96623.66
2022-11-26T10:17:38.959Z,96622.06
2022-11-26T10:21:37.736Z,96626.75
2022-11-26T10:25:29.697Z,96626.00
2022-11-26T10:29:21.884Z,96629.06
2022-11-26T10:33:08.257Z,96619.72
2022-11-26T10:36:52.164Z,96628.53
2022-11-26T10:40:35.120Z,96623.31
2022-11-26T10:44:34.704Z,96620.03
2022-11-26T10:48:23.078Z,96616.50
2022-11-26T10:52:09.208Z,96615.38
2022-11-26T10:55:55.376Z,96616.44
2022-11-26T10:59:42.622Z,96621.06
2022-11-26T11:03:51.863Z,96613.53
2022-11-26T11:07:32.061Z,96604.34
2022-11-26T11:11:21.253Z,96601.34
2022-11-26T11:15:23.976Z,96599.41
2022-11-26T11:19:11.262Z,96594.78
2022-11-26T11:22:59.369Z,96590.38
2022-11-26T11:26:44.589Z,96581.25
2022-11-26T11:30:30.985Z,96582.59
2022-11-26T11:34:20.629Z,96583.13
2022-11-26T11:38:03.322Z,96579.56
2022-11-26T11:41:47.600Z,96580.06
2022-11-26T11:45:34.851Z,96579.56
2022-11-26T11:49:24.849Z,96584.25
2022-11-26T11:53:19.482Z,96590.47
2022-11-26T11:57:08.707Z,96592.28
2022-11-26T12:00:57.074Z,96583.66
2022-11-26T12:04:49.470Z,96584.78
2022-11-26T12:08:40.392Z,96581.34
2022-11-26T12:12:24.957Z,96581.03
2022-11-26T12:16:11.656Z,96593.66
2022-11-26T12:19:57.229Z,96588.97
2022-11-26T12:23:46.795Z,96590.59
2022-11-26T12:27:34.648Z,96588.97
2022-11-26T12:31:21.735Z,96593.00
2022-11-26T12:35:08.904Z,96593.63
2022-11-26T12:38:54.147Z,96602.34
2022-11-26T12:42:42.118Z,96591.97
2022-11-26T12:46:28.728Z,96595.25
2022-11-26T12:50:17.685Z,96594.34
2022-11-26T12:54:06.448Z,96588.94
2022-11-26T12:57:52.514Z,96595.31
2022-11-26T13:01:36.779Z,96595.09
2022-11-26T13:05:21.880Z,96602.81
2022-11-26T13:09:10.089Z,96601.16
2022-11-26T13:12:57.083Z,96600.81
2022-11-26T13:16:46.885Z,96609.16
2022-11-26T13:20:56.754Z,96611.88
2022-11-26T13:24:50.491Z,96604.56
2022-11-26T13:28:46.247Z,96598.50
2022-11-26T13:33:06.577Z,96599.72
2022-11-26T13:37:17.628Z,96597.94
2022-11-26T13:41:21.614Z,96598.53
2022-11-26T13:45:50.479Z,96603.41
2022-11-26T13:49:38.272Z,96589.81
2022-11-26T13:53:26.944Z,96587.53
2022-11-26T13:57:14.132Z,96587.09
2022-11-26T14:00:57.440Z,96581.78
2022-11-26T14:04:54.867Z,96589.91
2022-11-26T14:08:39.857Z,96585.38
2022-11-26T14:12:23.192Z,96595.31
2022-11-26T14:16:07.077Z,96583.81
2022-11-26T14:20:11.541Z,96584.22
2022-11-26T14:23:58.675Z,96581.44
2022-11-26T14:27:43.615Z,96580.63
2022-11-26T14:31:32.395Z,96582.78
2022-11-26T14:35:20.504Z,96579.63
2022-11-26T14:39:08.159Z,96581.38
2022-11-26T14:42:51.128Z,96588.03
2022-11-26T14:46:33.887Z,96584.50
2022-11-26T14:50:19.889Z,96591.38
2022-11-26T14:54:02.788Z,96596.56
2022-11-26T14:57:50.078Z,96601.09
2022-11-26T15:01:33.784Z,96596.06
2022-11-26T15:05:20.523Z,96600.84
2022-11-26T15:09:07.973Z,96597.16
2022-11-26T15:12:52.698Z,96615.72
2022-11-26T15:16:37.928Z,96613.50
2022-11-26T15:20:22.316Z,96611.09
2022-11-26T15:24:09.225Z,96611.59
2022-11-26T15:27:59.022Z,96622.44
2022-11-26T15:31:41.865Z,96615.78
2022-11-26T15:35:26.020Z,96626.66
2022-11-26T15:39:27.476Z,96624.19
2022-11-26T15:43:20.482Z,96619.84
2022-11-26T15:47:03.476Z,96619.63
2022-11-26T15:50:48.284Z,96615.09
2022-11-26T15:54:49.737Z,96612.09
2022-11-26T15:58:37.436Z,96615.09
2022-11-26T16:02:23.485Z,96617.41
2022-11-26T16:06:10.522Z,96609.19
2022-11-26T16:10:10.293Z,96610.88
2022-11-26T16:13:52.956Z,96602.50
2022-11-26T16:17:36.368Z,96597.97
2022-11-26T16:21:24.335Z,96601.53
2022-11-26T16:25:09.170Z,96600.59
2022-11-26T16:28:52.035Z,96601.84
2022-11-26T16:32:34.962Z,96597.19
2022-11-26T16:36:24.181Z,96596.13
2022-11-26T16:40:14.280Z,96591.19
2022-11-26T16:43:58.567Z,96597.00
2022-11-26T16:47:43.266Z,96604.16
2022-11-26T16:51:27.249Z,96602.50
2022-11-26T16:55:14.371Z,96603.38
2022-11-26T16:58:59.023Z,96603.94
2022-11-26T17:02:41.943Z,96606.97
2022-11-26T17:06:29.271Z,96610.00
2022-11-26T17:10:15.041Z,96610.84
2022-11-26T17:13:57.923Z,96604.25
2022-11-26T17:17:40.859Z,96600.97
2022-11-26T17:21:23.665Z,96597.13
2022-11-26T17:25:10.186Z,96604.25
2022-11-26T17:28:52.962Z,96605.34
2022-11-26T17:32:35.627Z,96598.34
2022-11-26T17:36:19.914Z,96607.44
2022-11-26T17:40:02.848Z,96596.59
2022-11-26T17:43:47.286Z,96594.13
2022-11-26T17:47:30.021Z,96603.44
2022-11-26T17:51:14.488Z,96611.63
2022-11-26T17:54:57.182Z,96603.13
2022-11-26T17:58:42.890Z,96600.94
2022-11-26T18:02:26.969Z,96605.09
2022-11-26T18:06:11.142Z,96597.28
2022-11-26T18:09:53.830Z,96609.47
2022-11-26T18:13:36.682Z,96611.25
2022-11-26T18:17:19.383Z,96608.91
2022-11-26T18:21:03.623Z,96617.16
2022-11-26T18:24:56.498Z,96616.19
2022-11-26T18:28:39.752Z,96619.06
2022-11-26T18:32:22.421Z,96620.44
2022-11-26T18:36:07.574Z,96622.50
2022-11-26T18:39:50.305Z,96624.84
2022-11-26T18:43:36.660Z,96627.59
2022-11-26T18:47:19.324Z,96625.94
2022-11-26T18:51:02.193Z,96618.00
2022-11-26T18:54:46.237Z,96613.72
2022-11-26T18:58:28.927Z,96622.66
2022-11-26T19:02:12.147Z,96619.50
2022-11-26T19:05:57.963Z,96626.63
2022-11-26T19:09:40.990Z,96634.72
2022-11-26T19:13:25.475Z,96627.13
2022-11-26T19:17:08.181Z,96623.41
2022-11-26T19:20:52.935Z,96631.34
2022-11-26T19:24:36.071Z,96627.38
2022-11-26T19:28:18.836Z,96631.63
2022-11-26T19:32:02.915Z,96630.34
2022-11-26T19:35:45.552Z,96625.25
2022-11-26T19:39:30.743Z,96623.59
2022-11-26T19:43:13.628Z,96631.41
2022-11-26T19:46:56.299Z,96627.72
2022-11-26T19:50:40.293Z,96614.56
2022-11-26T19:54:23.343Z,96615.94
2022-11-26T19:58:06.012Z,96614.06
2022-11-26T20:01:48.814Z,96608.97
2022-11-26T20:05:31.694Z,96600.63
2022-11-26T20:09:16.106Z,96601.16
2022-11-26T20:12:58.829Z,96595.81
2022-11-26T20:16:43.180Z,96601.44
2022-11-26T20:20:25.896Z,96603.03
2022-11-26T20:24:12.502Z,96607.88
2022-11-26T20:27:58.414Z,96603.75
2022-11-26T20:31:44.512Z,96596.94
2022-11-26T20:35:27.198Z,96589.31
2022-11-26T20:39:13.598Z,96587.69
2022-11-26T20:42:57.650Z,96591.94
2022-11-26T20:46:40.720Z,96590.66
2022-11-26T20:50:23.395Z,96586.53
2022-11-26T20:54:06.246Z,96578.72
2022-11-26T20:57:49.551Z,96573.09
2022-11-26T21:01:33.720Z,96562.94
2022-11-26T21:05:16.774Z,96567.63
2022-11-26T21:09:01.161Z,96576.94
2022-11-26T21:12:43.876Z,96584.34
2022-11-26T21:16:26.888Z,96575.59
2022-11-26T21:20:12.248Z,96568.50
2022-11-26T21:23:55.279Z,96564.94
2022-11-26T21:27:37.950Z,96566.00
2022-11-26T21:31:21.306Z,96559.47
2022-11-26T21:35:04.387Z,96564.13
2022-11-26T21:38:50.292Z,96561.28
2022-11-26T21:42:32.982Z,96564.84
2022-11-26T21:46:17.795Z,96561.97
2022-11-26T21:50:00.567Z,96553.47
2022-11-26T21:53:43.932Z,96559.88
2022-11-26T21:57:31.599Z,96539.19
2022-11-26T22:01:15.724Z,96541.75
2022-11-26T22:04:58.440Z,96549.41
2022-11-26T22:08:41.681Z,96546.25
2022-11-26T22:12:27.011Z,96552.13
2022-11-26T22:16:12.014Z,96546.47
2022-11-26T22:19:54.745Z,96548.41
2022-11-26T22:23:37.461Z,96557.16
2022-11-26T22:27:20.141Z,96562.88
2022-11-26T22:31:12.317Z,96557.00
2022-11-26T22:34:55.063Z,96553.25
2022-11-26T22:38:38.513Z,96562.53
2022-11-26T22:42:21.266Z,96563.88
2022-11-26T22:46:05.362Z,96571.81
2022-11-26T22:49:50.013Z,96570.66
2022-11-26T22:53:33.308Z,96569.28
2022-11-26T22:57:18.797Z,96560.78
2022-11-26T23:01:08.816Z,96563.91
2022-11-26T23:04:54.528Z,96567.13
2022-11-26T23:08:37.761Z,96564.66
2022-11-26T23:12:20.472Z,96559.03
2022-11-26T23:16:03.215Z,96542.56
2022-11-26T23:19:46.008Z,96540.91
2022-11-26T23:23:30.115Z,96543.63
2022-11-26T23:27:12.995Z,96541.59
2022-11-26T23:31:01.371Z,96526.97
2022-11-26T23:34:44.084Z,96522.84
2022-11-26T23:38:26.846Z,96524.75
2022-11-26T23:42:10.875Z,96533.63
2022-11-26T23:46:00.899Z,96528.69
2022-11-26T23:49:43.631Z,96528.19
2022-11-26T23:53:26.291Z,96517.13
2022-11-26T23:57:14.848Z,96514.78
